createdAt,value
2023-04-22T00:02:01.885Z,31.50
2023-04-22T00:04:30.028Z,29.80
2023-04-22T00:06:58.175Z,28.90
2023-04-22T00:09:26.155Z,29.00
2023-04-22T00:11:53.904Z,25.90
2023-04-22T00:14:21.688Z,25.70
2023-04-22T00:16:49.506Z,30.80
2023-04-22T00:19:17.220Z,27.30
2023-04-22T00:21:45.182Z,28.10
2023-04-22T00:24:13.050Z,29.60
2023-04-22T00:26:43.549Z,27.90
2023-04-22T00:29:11.414Z,29.00
2023-04-22T00:31:39.402Z,27.90
2023-04-22T00:34:07.439Z,26.50
2023-04-22T00:36:35.300Z,24.30
2023-04-22T00:39:03.171Z,22.50
2023-04-22T00:41:32.294Z,27.50
2023-04-22T00:44:00.872Z,25.60
2023-04-22T00:46:29.490Z,26.00
2023-04-22T00:48:58.233Z,27.30
2023-04-22T00:51:26.081Z,24.00
2023-04-22T00:53:53.936Z,27.10
2023-04-22T00:56:22.361Z,25.70
2023-04-22T00:58:50.391Z,26.70
2023-04-22T01:01:18.845Z,23.60
2023-04-22T01:03:48.542Z,24.70
2023-04-22T01:06:20.512Z,25.10
2023-04-22T01:08:48.646Z,24.90
2023-04-22T01:11:16.600Z,26.00
2023-04-22T01:13:44.365Z,26.10
2023-04-22T01:16:13.222Z,26.60
2023-04-22T01:18:41.808Z,24.60
2023-04-22T01:21:09.979Z,25.70
2023-04-22T01:23:38.252Z,24.10
2023-04-22T01:26:06.181Z,22.60
2023-04-22T01:28:34.073Z,23.80
2023-04-22T01:31:02.187Z,23.70
2023-04-22T01:33:30.144Z,23.90
2023-04-22T01:35:59.697Z,22.80
2023-04-22T01:38:27.511Z,25.10
2023-04-22T01:40:55.467Z,23.90
2023-04-22T01:43:23.744Z,24.40
2023-04-22T01:45:51.515Z,20.10
2023-04-22T01:48:19.359Z,21.40
2023-04-22T01:50:47.220Z,20.10
2023-04-22T01:53:14.952Z,21.50
2023-04-22T01:55:43.374Z,21.30
2023-04-22T01:58:11.198Z,21.90
2023-04-22T02:00:39.054Z,24.10
2023-04-22T02:03:07.572Z,20.90
2023-04-22T02:05:35.526Z,22.40
2023-04-22T02:08:03.317Z,21.90
2023-04-22T02:10:31.402Z,20.50
2023-04-22T02:12:59.148Z,21.10
2023-04-22T02:15:26.963Z,22.60
2023-04-22T02:17:55.032Z,19.90
2023-04-22T02:20:22.772Z,21.00
2023-04-22T02:22:51.077Z,24.10
2023-04-22T02:25:18.936Z,19.90
2023-04-22T02:27:46.676Z,20.00
2023-04-22T02:30:14.777Z,18.40
2023-04-22T02:32:42.740Z,19.10
2023-04-22T02:35:11.763Z,23.30
2023-04-22T02:37:39.916Z,21.30
2023-04-22T02:40:09.273Z,18.50
2023-04-22T02:42:36.985Z,21.30
2023-04-22T02:45:05.532Z,23.60
2023-04-22T02:47:33.358Z,22.50
2023-04-22T02:50:01.174Z,19.70
2023-04-22T02:52:28.983Z,21.00
2023-04-22T02:54:58.798Z,19.60
2023-04-22T02:57:26.978Z,16.70
2023-04-22T02:59:54.868Z,18.70
2023-04-22T03:02:23.145Z,17.00
2023-04-22T03:04:52.375Z,19.20
2023-04-22T03:07:20.415Z,17.40
2023-04-22T03:09:48.113Z,18.10
2023-04-22T03:12:15.968Z,20.90
2023-04-22T03:14:43.816Z,20.60
2023-04-22T03:17:11.674Z,18.20
2023-04-22T03:19:39.697Z,21.50
2023-04-22T03:22:08.254Z,17.70
2023-04-22T03:24:36.079Z,20.50
2023-04-22T03:27:04.299Z,17.90
2023-04-22T03:29:32.212Z,17.30
2023-04-22T03:31:59.967Z,17.50
2023-04-22T03:34:27.872Z,20.00
2023-04-22T03:36:56.376Z,15.80
2023-04-22T03:39:24.201Z,16.50
2023-04-22T03:41:51.922Z,17.00
2023-04-22T03:44:19.651Z,16.20
2023-04-22T03:46:47.415Z,18.50
2023-04-22T03:49:15.629Z,16.10
2023-04-22T03:51:43.405Z,15.50
2023-04-22T03:54:11.249Z,19.70
2023-04-22T03:56:39.014Z,18.20
2023-04-22T03:59:06.732Z,18.60
2023-04-22T04:01:36.920Z,16.80
2023-04-22T04:04:13.492Z,17.10
2023-04-22T04:06:41.623Z,16.20
2023-04-22T04:09:14.116Z,16.90
2023-04-22T04:11:41.919Z,17.20
2023-04-22T04:14:09.879Z,16.60
2023-04-22T04:16:37.776Z,17.10
2023-04-22T04:19:06.446Z,17.70
2023-04-22T04:21:34.338Z,17.30
2023-04-22T04:24:03.439Z,16.70
2023-04-22T04:26:32.726Z,16.10
2023-04-22T04:29:01.941Z,15.10
2023-04-22T04:31:29.943Z,20.70
2023-04-22T04:33:58.645Z,19.20
2023-04-22T04:36:27.750Z,15.70
2023-04-22T04:38:56.920Z,15.60
2023-04-22T04:41:28.341Z,16.20
2023-04-22T04:44:00.721Z,18.70
2023-04-22T04:46:30.350Z,14.90
2023-04-22T04:48:58.921Z,16.70
2023-04-22T04:51:26.684Z,16.50
2023-04-22T04:53:54.696Z,14.60
2023-04-22T04:56:24.513Z,15.00
2023-04-22T04:58:52.389Z,16.20
2023-04-22T05:01:20.444Z,12.90
2023-04-22T05:03:48.494Z,13.60
2023-04-22T05:06:17.445Z,12.60
2023-04-22T05:08:45.570Z,12.70
2023-04-22T05:11:13.487Z,12.30
2023-04-22T05:13:41.653Z,13.70
2023-04-22T05:16:09.627Z,14.40
2023-04-22T05:18:37.353Z,11.80
2023-04-22T05:21:05.314Z,14.10
2023-04-22T05:23:33.148Z,12.80
2023-04-22T05:26:00.982Z,12.00
2023-04-22T05:28:28.792Z,16.90
2023-04-22T05:30:57.986Z,12.80
2023-04-22T05:33:25.655Z,11.80
2023-04-22T05:35:53.850Z,13.50
2023-04-22T05:38:21.693Z,12.80
2023-04-22T05:40:49.439Z,14.10
2023-04-22T05:43:17.234Z,12.80
2023-04-22T05:45:45.223Z,13.90
2023-04-22T05:48:13.038Z,12.00
2023-04-22T05:50:40.896Z,11.20
2023-04-22T05:53:08.680Z,12.60
2023-04-22T05:55:36.485Z,14.00
2023-04-22T05:58:04.286Z,12.40
2023-04-22T06:00:32.250Z,13.30
2023-04-22T06:03:00.184Z,13.20
2023-04-22T06:05:28.332Z,13.60
2023-04-22T06:07:56.474Z,12.10
2023-04-22T06:10:24.292Z,12.60
2023-04-22T06:12:53.593Z,12.50
2023-04-22T06:15:21.971Z,11.00
2023-04-22T06:17:50.700Z,9.70
2023-04-22T06:20:18.612Z,12.40
2023-04-22T06:22:46.654Z,10.30
2023-04-22T06:25:15.264Z,11.20
2023-04-22T06:27:43.213Z,11.20
2023-04-22T06:30:12.315Z,12.40
2023-04-22T06:32:40.237Z,10.70
2023-04-22T06:35:08.460Z,8.80
2023-04-22T06:37:37.078Z,11.60
2023-04-22T06:40:05.353Z,10.70
2023-04-22T06:42:33.046Z,10.80
2023-04-22T06:45:06.601Z,9.00
2023-04-22T06:47:34.761Z,11.50
2023-04-22T06:50:02.691Z,9.00
2023-04-22T06:52:30.430Z,9.10
2023-04-22T06:54:58.182Z,10.00
2023-04-22T06:57:28.201Z,9.80
2023-04-22T06:59:56.229Z,9.40
2023-04-22T07:02:24.110Z,10.20
2023-04-22T07:04:55.185Z,10.10
2023-04-22T07:07:23.949Z,9.50
2023-04-22T07:22:07.128Z,10.30
2023-04-22T07:24:38.796Z,8.70
2023-04-22T07:27:48.396Z,6.70
2023-04-22T07:30:20.169Z,9.50
2023-04-22T07:32:49.205Z,10.50
2023-04-22T07:35:16.258Z,8.60
2023-04-22T07:37:43.178Z,7.80
2023-04-22T07:41:45.228Z,7.00
2023-04-22T07:44:18.529Z,8.10
2023-04-22T07:46:50.703Z,7.00
2023-04-22T07:49:20.119Z,6.60
2023-04-22T07:51:47.276Z,5.80
2023-04-22T08:07:32.665Z,5.10
2023-04-22T08:20:56.523Z,11.80
2023-04-22T08:24:01.453Z,5.80
2023-04-22T08:27:50.743Z,6.00
2023-04-22T08:41:29.513Z,5.30
2023-04-22T08:44:22.272Z,5.40
2023-04-22T08:58:19.639Z,6.70
2023-04-22T09:01:14.289Z,5.30
2023-04-22T09:03:45.037Z,4.10
2023-04-22T09:06:20.015Z,4.60
2023-04-22T09:08:50.669Z,5.00
2023-04-22T09:11:18.849Z,5.60
2023-04-22T09:13:49.632Z,3.00
2023-04-22T09:16:18.774Z,4.20
2023-04-22T09:18:50.230Z,5.70
2023-04-22T09:21:18.128Z,8.50
2023-04-22T09:23:51.477Z,6.90
2023-04-22T09:26:29.588Z,5.00
2023-04-22T09:28:59.389Z,4.10
2023-04-22T09:31:28.608Z,7.00
2023-04-22T09:33:58.879Z,5.20
2023-04-22T09:36:31.964Z,4.60
2023-04-22T09:39:09.642Z,6.00
2023-04-22T09:41:39.989Z,5.70
2023-04-22T09:44:16.677Z,5.70
2023-04-22T09:46:51.744Z,7.60
2023-04-22T09:49:21.612Z,6.10
2023-04-22T09:51:57.128Z,6.60
2023-04-22T09:54:26.581Z,5.90
2023-04-22T09:56:55.722Z,6.80
2023-04-22T09:59:42.868Z,10.30
2023-04-22T10:02:16.760Z,5.70
2023-04-22T10:04:47.595Z,4.30
2023-04-22T10:08:51.486Z,4.30
2023-04-22T10:11:38.868Z,4.70
2023-04-22T10:14:10.716Z,3.40
2023-04-22T10:16:59.309Z,4.60
2023-04-22T10:19:33.007Z,3.90
2023-04-22T10:22:05.976Z,4.40
2023-04-22T10:24:38.596Z,5.00
2023-04-22T10:27:12.822Z,5.40
2023-04-22T10:29:43.857Z,8.20
2023-04-22T10:32:22.786Z,4.30
2023-04-22T10:35:06.603Z,3.60
2023-04-22T10:38:08.694Z,3.40
2023-04-22T10:42:14.971Z,5.90
2023-04-22T10:44:48.417Z,4.70
2023-04-22T10:47:42.874Z,4.40
2023-04-22T10:50:20.151Z,5.40
2023-04-22T10:53:45.861Z,7.90
2023-04-22T10:57:55.022Z,6.10
2023-04-22T11:01:30.621Z,2.90
2023-04-22T11:05:27.115Z,5.60
2023-04-22T11:09:17.709Z,4.70
2023-04-22T11:22:46.038Z,2.70
2023-04-22T11:25:44.842Z,4.20
2023-04-22T11:30:05.121Z,5.10
2023-04-22T11:32:32.268Z,3.60
2023-04-22T11:35:09.026Z,3.30
2023-04-22T11:37:51.276Z,5.00
2023-04-22T11:40:46.220Z,5.20
2023-04-22T11:43:15.083Z,7.70
2023-04-22T11:45:44.362Z,5.30
2023-04-22T11:48:17.408Z,4.00
2023-04-22T11:50:45.909Z,3.50
2023-04-22T11:53:24.418Z,5.80
2023-04-22T11:55:53.049Z,8.30
2023-04-22T11:58:54.639Z,4.90
2023-04-22T12:01:25.905Z,3.30
2023-04-22T12:04:01.580Z,4.30
2023-04-22T12:06:32.594Z,4.20
2023-04-22T12:09:02.636Z,2.70
2023-04-22T12:13:47.667Z,2.10
2023-04-22T12:16:21.190Z,3.60
2023-04-22T12:18:56.753Z,4.90
2023-04-22T12:21:42.555Z,3.90
2023-04-22T12:24:12.028Z,2.20
2023-04-22T12:26:41.694Z,1.70
2023-04-22T12:29:09.946Z,3.70
2023-04-22T12:31:49.568Z,2.70
2023-04-22T12:34:18.429Z,4.30
2023-04-22T12:39:19.741Z,2.00
2023-04-22T12:42:41.112Z,2.30
2023-04-22T12:45:10.902Z,4.30
2023-04-22T12:47:42.607Z,3.80
2023-04-22T12:50:15.327Z,3.20
2023-04-22T12:52:43.336Z,3.20
2023-04-22T12:55:11.273Z,3.00
2023-04-22T12:57:40.099Z,4.30
2023-04-22T13:00:17.217Z,3.80
2023-04-22T13:02:47.799Z,3.10
2023-04-22T13:05:17.366Z,2.30
2023-04-22T13:07:53.182Z,3.10
2023-04-22T13:10:28.797Z,3.20
2023-04-22T13:13:06.429Z,3.80
2023-04-22T13:15:44.466Z,4.20
2023-04-22T13:18:13.989Z,2.80
2023-04-22T13:20:42.842Z,4.90
2023-04-22T13:23:11.017Z,3.20
2023-04-22T13:25:39.050Z,2.90
2023-04-22T13:28:11.797Z,3.50
2023-04-22T13:30:40.444Z,2.80
2023-04-22T13:33:08.319Z,2.90
2023-04-22T13:35:36.949Z,4.30
2023-04-22T13:38:05.995Z,4.90
2023-04-22T13:40:36.041Z,3.10
2023-04-22T13:43:05.221Z,3.80
2023-04-22T13:45:33.088Z,3.80
2023-04-22T13:48:01.270Z,4.10
2023-04-22T13:50:29.227Z,3.60
2023-04-22T13:52:57.308Z,4.10
2023-04-22T13:55:26.806Z,5.10
2023-04-22T13:57:54.874Z,4.70
2023-04-22T14:00:27.515Z,4.70
2023-04-22T14:02:56.587Z,5.40
2023-04-22T14:05:27.464Z,5.10
2023-04-22T14:07:56.090Z,5.40
2023-04-22T14:10:23.980Z,5.20
2023-04-22T14:12:52.310Z,4.90
2023-04-22T14:15:20.484Z,5.00
2023-04-22T14:17:49.944Z,5.10
2023-04-22T14:20:18.097Z,5.30
2023-04-22T14:22:46.525Z,5.00
2023-04-22T14:25:14.778Z,4.90
2023-04-22T14:27:43.214Z,6.80
2023-04-22T14:30:12.291Z,3.70
2023-04-22T14:32:42.472Z,5.50
2023-04-22T14:35:10.513Z,4.10
2023-04-22T14:37:42.182Z,3.50
2023-04-22T14:40:12.275Z,4.00
2023-04-22T14:42:47.898Z,4.00
2023-04-22T14:45:26.956Z,3.50
2023-04-22T14:47:56.402Z,4.10
2023-04-22T14:50:25.800Z,4.70
2023-04-22T14:56:22.188Z,5.80
2023-04-22T14:58:49.383Z,3.20
2023-04-22T15:01:16.548Z,5.20
2023-04-22T15:03:43.699Z,5.40
2023-04-22T15:06:11.446Z,4.40
2023-04-22T15:08:40.421Z,4.80
2023-04-22T15:11:07.244Z,3.80
2023-04-22T15:13:33.799Z,4.30
2023-04-22T15:16:05.825Z,4.60
2023-04-22T15:18:32.700Z,4.10
2023-04-22T15:21:02.413Z,4.30
2023-04-22T15:23:28.956Z,5.00
2023-04-22T15:25:55.873Z,5.40
2023-04-22T15:28:23.880Z,4.40
2023-04-22T15:30:55.970Z,4.00
2023-04-22T15:33:24.992Z,4.50
2023-04-22T15:35:51.988Z,3.80
2023-04-22T15:38:25.980Z,5.00
2023-04-22T15:40:56.327Z,5.40
2023-04-22T15:43:23.618Z,5.60
2023-04-22T15:45:52.455Z,4.80
2023-04-22T15:48:20.287Z,4.70
2023-04-22T15:50:53.865Z,5.10
2023-04-22T15:53:23.504Z,6.90
2023-04-22T15:55:53.117Z,2.90
2023-04-22T15:58:20.557Z,3.40
2023-04-22T16:00:51.632Z,6.40
2023-04-22T16:03:21.140Z,3.50
2023-04-22T16:06:33.418Z,4.50
2023-04-22T16:09:06.443Z,4.00
2023-04-22T16:11:55.683Z,5.40
2023-04-22T16:14:28.577Z,4.90
2023-04-22T16:19:53.117Z,4.10
2023-04-22T16:20:12.696Z,4.90
2023-04-22T16:22:22.531Z,4.50
2023-04-22T16:24:51.545Z,3.70
2023-04-22T16:27:18.595Z,5.30
2023-04-22T16:29:45.661Z,3.60
2023-04-22T16:32:12.805Z,4.30
2023-04-22T16:34:39.287Z,4.70
2023-04-22T16:37:05.889Z,4.30
2023-04-22T16:39:33.295Z,4.10
2023-04-22T16:59:38.709Z,4.20
2023-04-22T17:02:06.884Z,5.50
2023-04-22T17:04:34.983Z,5.60
2023-04-22T17:07:02.883Z,3.50
2023-04-22T17:09:32.847Z,4.40
2023-04-22T17:12:01.606Z,4.00
2023-04-22T17:14:29.917Z,4.30
2023-04-22T17:16:58.779Z,6.10
2023-04-22T17:19:27.957Z,8.60
2023-04-22T17:21:56.011Z,4.10
2023-04-22T17:24:25.281Z,4.40
2023-04-22T17:26:53.267Z,5.30
2023-04-22T17:29:21.963Z,6.90
2023-04-22T17:31:50.741Z,5.90
2023-04-22T17:40:36.846Z,5.70
2023-04-22T17:43:04.784Z,5.20
2023-04-22T17:45:33.201Z,15.10
2023-04-22T17:48:01.752Z,26.80
2023-04-22T17:50:29.683Z,13.10
2023-04-22T17:52:58.199Z,19.20
2023-04-22T17:55:33.167Z,305.10
2023-04-22T17:58:03.121Z,75.70
2023-04-22T18:00:33.458Z,30.10
2023-04-22T18:03:02.017Z,38.40
2023-04-22T18:05:29.985Z,198.60
2023-04-22T18:08:10.386Z,278.40
2023-04-22T18:10:38.917Z,192.70
2023-04-22T18:13:06.952Z,125.20
2023-04-22T18:15:34.811Z,123.60
2023-04-22T18:18:02.815Z,65.00
2023-04-22T18:20:30.687Z,51.90
2023-04-22T18:22:58.593Z,31.30
2023-04-22T18:25:26.909Z,24.40
2023-04-22T18:27:55.146Z,16.20
2023-04-22T18:30:23.626Z,12.00
2023-04-22T18:32:52.003Z,13.50
2023-04-22T18:35:20.302Z,10.10
2023-04-22T18:37:49.275Z,8.70
2023-04-22T18:40:17.649Z,11.40
2023-04-22T18:42:46.089Z,12.10
2023-04-22T18:45:16.695Z,10.90
2023-04-22T18:47:47.135Z,10.00
2023-04-22T18:50:15.257Z,11.80
2023-04-22T18:52:43.106Z,9.50
2023-04-22T18:55:11.398Z,17.10
2023-04-22T18:57:41.976Z,9.10
2023-04-22T19:00:10.962Z,8.70
2023-04-22T19:02:41.516Z,11.30
2023-04-22T19:05:10.696Z,10.30
2023-04-22T19:07:38.951Z,15.50
2023-04-22T19:10:07.975Z,13.90
2023-04-22T19:12:36.346Z,12.40
2023-04-22T19:15:06.974Z,10.60
2023-04-22T19:17:35.061Z,10.30
2023-04-22T19:20:05.323Z,10.50
2023-04-22T19:22:33.130Z,15.40
2023-04-22T19:25:01.186Z,11.30
2023-04-22T19:27:29.259Z,10.40
2023-04-22T19:29:57.042Z,10.60
2023-04-22T19:32:25.097Z,13.60
2023-04-22T19:34:53.960Z,14.40
2023-04-22T19:37:22.264Z,16.50
2023-04-22T19:39:50.177Z,16.00
2023-04-22T19:42:20.553Z,13.40
2023-04-22T19:44:49.861Z,11.20
2023-04-22T19:47:17.849Z,16.30
2023-04-22T19:49:46.238Z,13.90
2023-04-22T19:52:15.802Z,18.40
2023-04-22T19:54:47.757Z,13.20
2023-04-22T19:57:15.878Z,12.70
2023-04-22T19:59:45.606Z,15.60
2023-04-22T20:02:14.454Z,16.20
2023-04-22T20:04:43.238Z,19.30
2023-04-22T20:07:12.330Z,382.60
2023-04-22T20:09:43.207Z,256.10
2023-04-22T20:12:11.453Z,103.00
2023-04-22T20:14:39.480Z,40.00
2023-04-22T20:17:07.407Z,37.70
2023-04-22T20:19:35.378Z,19.20
2023-04-22T20:22:06.552Z,16.20
2023-04-22T20:24:37.277Z,21.00
2023-04-22T20:27:08.119Z,20.30
2023-04-22T20:29:38.486Z,20.70
2023-04-22T20:32:07.053Z,16.70
2023-04-22T20:34:36.190Z,22.20
2023-04-22T20:37:06.624Z,23.00
2023-04-22T20:42:21.414Z,22.30
2023-04-22T20:44:49.155Z,20.20
2023-04-22T20:47:17.317Z,18.40
2023-04-22T20:49:45.160Z,20.70
2023-04-22T20:52:13.332Z,21.30
2023-04-22T20:54:41.165Z,18.00
2023-04-22T20:57:08.872Z,23.80
2023-04-22T20:59:36.988Z,20.70
2023-04-22T21:02:06.724Z,22.60
2023-04-22T21:04:34.938Z,23.40
2023-04-22T21:07:07.044Z,19.80
2023-04-22T21:09:35.265Z,22.70
2023-04-22T21:17:35.632Z,19.90
2023-04-22T21:20:07.024Z,23.60
2023-04-22T21:22:36.034Z,20.60
2023-04-22T21:25:04.789Z,19.10
2023-04-22T21:27:34.663Z,19.50
2023-04-22T21:30:03.034Z,17.70
2023-04-22T21:32:33.200Z,18.20
2023-04-22T21:41:17.094Z,18.90
2023-04-22T21:43:48.722Z,18.80
2023-04-22T21:46:17.706Z,20.30
2023-04-22T21:48:45.623Z,20.10
2023-04-22T21:51:14.412Z,20.50
2023-04-22T21:53:44.522Z,18.70
2023-04-22T21:56:31.641Z,19.90
2023-04-22T21:59:00.777Z,19.30
2023-04-22T22:01:28.553Z,22.00
2023-04-22T22:03:57.626Z,19.60
2023-04-22T22:06:25.529Z,20.00
2023-04-22T22:08:53.465Z,22.20
2023-04-22T22:11:30.245Z,21.60
2023-04-22T22:13:59.226Z,17.20
2023-04-22T22:16:27.150Z,20.40
2023-04-22T22:18:57.838Z,19.60
2023-04-22T22:21:25.646Z,19.70
2023-04-22T22:23:53.741Z,20.60
2023-04-22T22:26:21.533Z,21.00
2023-04-22T22:28:50.464Z,21.10
2023-04-22T22:31:18.494Z,17.70
2023-04-22T22:33:48.664Z,19.80
2023-04-22T22:36:16.685Z,18.40
2023-04-22T22:38:49.125Z,18.10
2023-04-22T22:41:16.851Z,17.80
2023-04-22T22:43:44.559Z,17.50
2023-04-22T22:46:12.358Z,18.80
2023-04-22T22:48:40.342Z,17.20
2023-04-22T22:51:10.335Z,18.70
2023-04-22T22:53:38.152Z,18.60
2023-04-22T22:56:06.802Z,16.80
2023-04-22T22:58:36.272Z,16.10
2023-04-22T23:01:05.446Z,15.70
2023-04-22T23:03:33.965Z,16.90
2023-04-22T23:06:01.973Z,17.00
2023-04-22T23:08:29.629Z,19.10
2023-04-22T23:10:57.881Z,17.60
2023-04-22T23:13:25.911Z,19.10
2023-04-22T23:15:53.765Z,18.60
2023-04-22T23:18:22.137Z,19.30
2023-04-22T23:20:51.899Z,16.80
2023-04-22T23:23:19.787Z,19.80
2023-04-22T23:25:47.942Z,18.70
2023-04-22T23:28:16.100Z,17.10
2023-04-22T23:30:44.883Z,16.30
2023-04-22T23:33:14.713Z,20.00
2023-04-22T23:35:44.578Z,18.70
2023-04-22T23:38:12.415Z,19.60
2023-04-22T23:40:40.281Z,21.00
2023-04-22T23:43:08.428Z,21.20
2023-04-22T23:45:36.156Z,19.40
2023-04-22T23:48:04.650Z,18.70
2023-04-22T23:50:32.390Z,19.40
2023-04-22T23:53:00.305Z,19.60
2023-04-22T23:55:28.581Z,18.50
2023-04-22T23:57:59.080Z,19.80
